Search for airport 
image banner adimage banner adimage banner ad
image banner ad

L62 - Elk Hills-Buttonwillow

Located in Buttonwillow, United States

ICAO - L62, IATA -

Data provided by Airmate  

General information

Coordinates: N35°21'12" W119°28'47"
Elevation is 326 feet MSL.
Magnetic variation is 15° East
View others Airports in California

Operational data

Special qualification required
Current time UTC:
Current local time:
Weather at : KBFL - Meadows Field ( 39 km )
METAR: KBFL 221354Z 33010KT 8SM CLR 22/07 A2989 RMK AO2 SLP113 T02170067
TAF: KBFL 221120Z 2212/2312 35010KT P6SM SKC
View NOTAMs / SUP AIP / TFR affecting this airport [VIEW]
Communications frequencies: [VIEW]

Runways:

RWY identifierQFULength (ft)Width (ft)SurfaceLDA (ft)
11326050ASPH
29326050ASPH

Airport contact information

Address: Buttonwillow United States

Satellite view of L62